Time;durP1;ratioP1;P1;durP2;ratioP2;P2;SDS_P1;SDS_P2;PMS_P1;PMS_P2;Temp;Humidity;BMP_temperature;BMP_pressure;BME280_temperature;BME280_humidity;BME280_pressure;Samples;Min_cycle;Max_cycle;Signal;HPM_P1;HPM_P2
2022/09/16 00:00:12;;;;;;;2.83;1.60;;;;;;;;;;4936199;29;20472;-61
2022/09/16 00:02:38;;;;;;;1.73;1.50;;;;;;;;;;4938715;29;20106;-61
2022/09/16 00:05:03;;;;;;;2.65;1.85;;;;;;;;;;4938432;29;20062;-61
2022/09/16 00:07:29;;;;;;;3.08;1.30;;;;;;;;;;4938587;29;20379;-61
2022/09/16 00:09:55;;;;;;;1.60;1.30;;;;;;;;;;4938216;29;20039;-60
2022/09/16 00:12:21;;;;;;;2.85;1.80;;;;;;;;;;4938280;29;20027;-61
2022/09/16 00:14:46;;;;;;;1.92;1.50;;;;;;;;;;4938197;29;20185;-60
2022/09/16 00:17:12;;;;;;;2.22;1.70;;;;;;;;;;4938425;29;20028;-61
2022/09/16 00:19:37;;;;;;;2.13;1.50;;;;;;;;;;4938392;29;20195;-61
2022/09/16 00:22:03;;;;;;;2.45;1.30;;;;;;;;;;4938120;29;20361;-61
2022/09/16 00:24:28;;;;;;;1.45;1.35;;;;;;;;;;4938400;29;20472;-60
2022/09/16 00:26:54;;;;;;;2.28;1.88;;;;;;;;;;4938285;29;20032;-60
2022/09/16 00:29:19;;;;;;;2.08;1.50;;;;;;;;;;4938238;29;20504;-61
2022/09/16 00:31:45;;;;;;;1.98;1.45;;;;;;;;;;4937989;29;20035;-60
2022/09/16 00:34:10;;;;;;;1.60;1.50;;;;;;;;;;4937725;29;20058;-60
2022/09/16 00:36:36;;;;;;;3.72;1.60;;;;;;;;;;4937954;29;20034;-60
2022/09/16 00:39:01;;;;;;;1.60;1.13;;;;;;;;;;4938270;29;20027;-61
2022/09/16 00:41:32;;;;;;;2.15;1.50;;;;;;;;;;4938053;29;20028;-61
2022/09/16 00:44:01;;;;;;;1.80;1.60;;;;;;;;;;4937876;29;20023;-61
2022/09/16 00:46:44;;;;;;;1.88;1.50;;;;;;;;;;4937718;29;20107;-61
2022/09/16 00:49:21;;;;;;;2.55;1.70;;;;;;;;;;4937844;29;20024;-61
2022/09/16 00:51:50;;;;;;;3.63;1.60;;;;;;;;;;4938154;29;20024;-61
2022/09/16 00:54:19;;;;;;;2.25;1.60;;;;;;;;;;4937666;29;20035;-61
2022/09/16 00:56:48;;;;;;;4.53;1.70;;;;;;;;;;4937752;29;20036;-62
2022/09/16 00:59:23;;;;;;;2.08;1.40;;;;;;;;;;4937494;29;20508;-61
2022/09/16 01:01:50;;;;;;;1.60;1.50;;;;;;;;;;4937696;29;20048;-61
2022/09/16 01:04:26;;;;;;;2.08;1.23;;;;;;;;;;4937518;29;20411;-61
2022/09/16 01:06:52;;;;;;;2.72;1.30;;;;;;;;;;4937666;29;20027;-61
2022/09/16 01:09:21;;;;;;;1.65;1.40;;;;;;;;;;4937292;29;20579;-62
2022/09/16 01:11:46;;;;;;;2.03;1.48;;;;;;;;;;4936161;29;20039;-61
2022/09/16 01:17:07;;;;;;;1.40;1.27;;;;;;;;;;4937542;29;20046;-61
2022/09/16 01:19:52;;;;;;;2.45;1.35;;;;;;;;;;4937209;29;20087;-62
2022/09/16 01:22:42;;;;;;;3.83;1.67;;;;;;;;;;4937288;29;20075;-61
2022/09/16 01:25:13;;;;;;;;;;;;;;;;;;4937476;29;20038;-61
2022/09/16 01:27:51;;;;;;;1.58;1.38;;;;;;;;;;4936923;29;19919;-61
2022/09/16 01:30:35;;;;;;;1.52;1.30;;;;;;;;;;4936837;29;20045;-61
2022/09/16 01:33:10;;;;;;;1.52;1.42;;;;;;;;;;4936668;29;20039;-61
2022/09/16 01:35:48;;;;;;;2.08;1.42;;;;;;;;;;4936849;29;20030;-61
2022/09/16 01:38:31;;;;;;;2.58;1.60;;;;;;;;;;4936810;29;20024;-61
2022/09/16 01:41:27;;;;;;;1.50;1.40;;;;;;;;;;4936712;29;20032;-61
2022/09/16 01:44:16;;;;;;;1.75;1.45;;;;;;;;;;4936842;29;20053;-66
2022/09/16 01:47:05;;;;;;;3.23;1.50;;;;;;;;;;4936938;29;20511;-62
2022/09/16 01:49:52;;;;;;;3.38;1.38;;;;;;;;;;4936547;29;20498;-65
2022/09/16 01:52:30;;;;;;;1.65;1.50;;;;;;;;;;4936446;29;20571;-64
2022/09/16 01:55:05;;;;;;;2.05;1.40;;;;;;;;;;4936831;29;20074;-62
2022/09/16 01:57:56;;;;;;;1.90;1.60;;;;;;;;;;4936405;29;20032;-62
2022/09/16 02:00:22;;;;;;;2.58;1.40;;;;;;;;;;4926862;29;20067;-61
2022/09/16 02:02:50;;;;;;;1.77;1.30;;;;;;;;;;4919266;29;20443;-61
2022/09/16 02:05:32;;;;;;;1.52;1.42;;;;;;;;;;4936559;29;20032;-61
2022/09/16 02:08:08;;;;;;;1.90;1.30;;;;;;;;;;4936271;29;20032;-62
2022/09/16 02:10:46;;;;;;;1.38;1.27;;;;;;;;;;4936084;29;20028;-61
2022/09/16 02:13:21;;;;;;;3.33;1.40;;;;;;;;;;4936366;29;20038;-61
2022/09/16 02:15:50;;;;;;;3.50;1.60;;;;;;;;;;4936152;29;20074;-61
2022/09/16 02:18:21;;;;;;;1.90;1.30;;;;;;;;;;4919402;29;20035;-62
2022/09/16 02:20:48;;;;;;;1.50;1.40;;;;;;;;;;4936055;29;20028;-62
2022/09/16 02:23:18;;;;;;;1.30;1.20;;;;;;;;;;4935900;29;20035;-61
2022/09/16 02:25:46;;;;;;;2.25;1.30;;;;;;;;;;4935944;29;20082;-61
2022/09/16 02:28:23;;;;;;;2.55;1.40;;;;;;;;;;4936044;29;20030;-62
2022/09/16 02:30:52;;;;;;;1.60;1.23;;;;;;;;;;4935835;29;20051;-62
2022/09/16 02:33:23;;;;;;;1.40;1.30;;;;;;;;;;4935651;29;20407;-62
2022/09/16 02:35:53;;;;;;;2.05;1.20;;;;;;;;;;4935722;29;20079;-62
2022/09/16 02:38:23;;;;;;;2.30;1.27;;;;;;;;;;4935945;29;20044;-62
2022/09/16 02:40:56;;;;;;;2.58;1.42;;;;;;;;;;4936022;29;20387;-61
2022/09/16 02:43:23;;;;;;;2.22;1.40;;;;;;;;;;4935883;29;20066;-64
2022/09/16 02:46:14;;;;;;;1.67;1.20;;;;;;;;;;4935878;29;20032;-65
2022/09/16 02:48:58;;;;;;;1.95;1.50;;;;;;;;;;4935782;29;20420;-66
2022/09/16 02:51:32;;;;;;;1.40;1.30;;;;;;;;;;4935633;29;20059;-66
2022/09/16 02:54:13;;;;;;;1.40;1.30;;;;;;;;;;4935478;29;20472;-65
2022/09/16 02:56:40;;;;;;;1.33;1.23;;;;;;;;;;4935496;29;20361;-64
2022/09/16 02:59:09;;;;;;;1.27;1.23;;;;;;;;;;4935310;29;20028;-62
2022/09/16 03:01:44;;;;;;;2.50;1.65;;;;;;;;;;4935705;29;20032;-64
2022/09/16 03:04:13;;;;;;;1.98;1.35;;;;;;;;;;4935342;29;20110;-62
2022/09/16 03:06:39;;;;;;;3.63;1.30;;;;;;;;;;4935247;29;20042;-61
2022/09/16 03:09:11;;;;;;;2.47;1.52;;;;;;;;;;4918176;29;20071;-61
2022/09/16 03:12:06;;;;;;;1.48;1.38;;;;;;;;;;4919379;29;20032;-61
2022/09/16 03:15:02;;;;;;;1.70;1.38;;;;;;;;;;4935306;29;20024;-62
2022/09/16 03:17:36;;;;;;;1.40;1.30;;;;;;;;;;4935391;29;20063;-61
2022/09/16 03:20:06;;;;;;;2.58;1.30;;;;;;;;;;4935254;29;20122;-61
2022/09/16 03:22:52;;;;;;;1.40;1.30;;;;;;;;;;4935461;29;20037;-62
2022/09/16 03:25:33;;;;;;;1.50;1.40;;;;;;;;;;4918141;29;20040;-62
2022/09/16 03:28:02;;;;;;;1.60;1.50;;;;;;;;;;4918062;29;20042;-62
2022/09/16 03:30:32;;;;;;;1.80;1.20;;;;;;;;;;4935127;29;20038;-62
2022/09/16 03:33:04;;;;;;;1.40;1.10;;;;;;;;;;4934857;29;20051;-62
2022/09/16 03:35:36;;;;;;;2.17;1.20;;;;;;;;;;4937401;29;20027;-61
2022/09/16 03:38:02;;;;;;;1.90;1.17;;;;;;;;;;4921912;29;20024;-61
2022/09/16 03:40:30;;;;;;;1.30;1.20;;;;;;;;;;4939196;29;20055;-61
2022/09/16 03:42:56;;;;;;;1.75;1.30;;;;;;;;;;4939144;29;20027;-61
2022/09/16 03:45:22;;;;;;;1.30;1.10;;;;;;;;;;4921647;29;20031;-61
2022/09/16 03:47:49;;;;;;;1.90;1.50;;;;;;;;;;4939124;29;20030;-61
2022/09/16 03:50:16;;;;;;;1.40;1.30;;;;;;;;;;4938881;29;20039;-61
2022/09/16 03:52:42;;;;;;;2.60;1.58;;;;;;;;;;4938780;29;20024;-63
2022/09/16 03:55:09;;;;;;;1.40;1.30;;;;;;;;;;4938669;29;20551;-61
2022/09/16 03:57:35;;;;;;;3.15;1.50;;;;;;;;;;4938514;29;20032;-61
2022/09/16 04:00:01;;;;;;;2.88;1.40;;;;;;;;;;4938577;29;20034;-61
2022/09/16 04:02:26;;;;;;;1.67;1.30;;;;;;;;;;4938760;29;20032;-62
2022/09/16 04:04:52;;;;;;;1.77;1.40;;;;;;;;;;4938707;29;20384;-61
2022/09/16 04:07:18;;;;;;;1.83;1.20;;;;;;;;;;4938511;29;20028;-61
2022/09/16 04:09:43;;;;;;;1.40;1.30;;;;;;;;;;4938544;29;20196;-62
2022/09/16 04:12:09;;;;;;;2.25;1.48;;;;;;;;;;4938659;29;20024;-61
2022/09/16 04:14:35;;;;;;;1.45;1.33;;;;;;;;;;4938263;29;20039;-62
2022/09/16 04:17:01;;;;;;;1.55;1.45;;;;;;;;;;4938495;29;20024;-61
2022/09/16 04:19:26;;;;;;;1.60;1.50;;;;;;;;;;4938270;29;20472;-61
2022/09/16 04:21:52;;;;;;;1.98;1.30;;;;;;;;;;4938344;29;20031;-65
2022/09/16 04:24:17;;;;;;;1.67;1.20;;;;;;;;;;4938099;29;20515;-64
2022/09/16 04:26:43;;;;;;;2.72;1.20;;;;;;;;;;4938046;29;20110;-64
2022/09/16 04:29:09;;;;;;;1.20;1.10;;;;;;;;;;4938205;29;20023;-65
2022/09/16 04:31:34;;;;;;;1.23;1.13;;;;;;;;;;4938068;29;20091;-65
2022/09/16 04:34:01;;;;;;;1.77;1.40;;;;;;;;;;4937689;29;20050;-63
2022/09/16 04:36:27;;;;;;;1.95;1.30;;;;;;;;;;4937744;29;20043;-63
2022/09/16 04:38:52;;;;;;;1.42;1.33;;;;;;;;;;4938195;29;20092;-60
2022/09/16 04:41:20;;;;;;;1.73;1.40;;;;;;;;;;4937827;29;20484;-60
2022/09/16 04:43:51;;;;;;;1.20;1.20;;;;;;;;;;4937726;29;20619;-61
2022/09/16 04:46:17;;;;;;;1.30;1.20;;;;;;;;;;4937838;29;20173;-62
2022/09/16 04:48:46;;;;;;;1.20;1.10;;;;;;;;;;4937558;29;20027;-63
2022/09/16 04:51:12;;;;;;;1.98;1.20;;;;;;;;;;4937700;29;20114;-61
2022/09/16 04:53:39;;;;;;;1.30;1.20;;;;;;;;;;4937718;29;20066;-65
2022/09/16 04:56:11;;;;;;;2.35;1.23;;;;;;;;;;4920429;29;20021;-62
2022/09/16 04:58:37;;;;;;;1.13;1.05;;;;;;;;;;4937868;29;20059;-61
2022/09/16 05:01:11;;;;;;;1.88;1.20;;;;;;;;;;4937516;29;20074;-63
2022/09/16 05:03:41;;;;;;;1.30;1.20;;;;;;;;;;4937418;29;20028;-65
2022/09/16 05:06:12;;;;;;;1.30;1.20;;;;;;;;;;4937557;29;20051;-62
2022/09/16 05:08:38;;;;;;;1.40;1.23;;;;;;;;;;4937313;29;20039;-62
2022/09/16 05:11:10;;;;;;;1.25;1.15;;;;;;;;;;4937268;29;20031;-60
2022/09/16 05:13:36;;;;;;;1.42;1.30;;;;;;;;;;4937511;29;20028;-62
2022/09/16 05:16:03;;;;;;;1.20;1.10;;;;;;;;;;4920185;29;20480;-61
2022/09/16 05:18:29;;;;;;;1.73;1.30;;;;;;;;;;4937067;29;20036;-61
2022/09/16 05:20:57;;;;;;;1.55;1.33;;;;;;;;;;4937064;29;20162;-64
2022/09/16 05:23:23;;;;;;;1.65;1.40;;;;;;;;;;4937341;29;20028;-60
2022/09/16 05:25:48;;;;;;;1.60;1.50;;;;;;;;;;4936946;29;20032;-64
2022/09/16 05:28:14;;;;;;;1.70;1.30;;;;;;;;;;4937075;29;20040;-59
2022/09/16 05:30:39;;;;;;;1.60;1.38;;;;;;;;;;4936819;29;20036;-64
2022/09/16 05:33:05;;;;;;;1.95;1.33;;;;;;;;;;4936574;29;20095;-61
2022/09/16 05:35:30;;;;;;;1.40;1.30;;;;;;;;;;4936849;29;20028;-60
2022/09/16 05:37:56;;;;;;;1.38;1.23;;;;;;;;;;4936711;29;20019;-65
2022/09/16 05:40:21;;;;;;;1.48;1.38;;;;;;;;;;4943558;29;20032;-65
2022/09/16 05:42:50;;;;;;;1.65;1.42;;;;;;;;;;4941221;29;20434;-64
2022/09/16 05:45:16;;;;;;;1.60;1.50;;;;;;;;;;4955424;29;20111;-61
2022/09/16 05:47:49;;;;;;;1.50;1.35;;;;;;;;;;4955320;29;20019;-61
2022/09/16 05:50:15;;;;;;;2.47;1.33;;;;;;;;;;4954497;29;20070;-66
2022/09/16 05:52:40;;;;;;;2.03;1.40;;;;;;;;;;4955341;29;20467;-61
2022/09/16 05:55:06;;;;;;;1.38;1.27;;;;;;;;;;4955663;29;20078;-64
2022/09/16 05:57:32;;;;;;;1.42;1.33;;;;;;;;;;4955074;28;20090;-65
2022/09/16 05:59:57;;;;;;;2.33;1.50;;;;;;;;;;4955427;29;20464;-62
2022/09/16 06:02:23;;;;;;;1.98;1.50;;;;;;;;;;4937343;29;20035;-60
2022/09/16 06:04:49;;;;;;;1.67;1.40;;;;;;;;;;4935459;29;20070;-65
2022/09/16 06:07:16;;;;;;;1.65;1.52;;;;;;;;;;4935134;29;20480;-60
2022/09/16 06:09:41;;;;;;;1.70;1.60;;;;;;;;;;4917926;29;20028;-60
2022/09/16 06:12:08;;;;;;;1.63;1.42;;;;;;;;;;4930723;29;20075;-60
2022/09/16 06:14:34;;;;;;;1.95;1.75;;;;;;;;;;4931956;29;20380;-60
2022/09/16 06:16:59;;;;;;;2.60;1.58;;;;;;;;;;4934849;29;20031;-61
2022/09/16 06:19:25;;;;;;;1.55;1.40;;;;;;;;;;4934945;29;20159;-64
2022/09/16 06:21:50;;;;;;;1.60;1.50;;;;;;;;;;4935161;29;20038;-64
2022/09/16 06:24:17;;;;;;;1.42;1.33;;;;;;;;;;4933977;29;20106;-63
2022/09/16 06:26:44;;;;;;;2.55;1.60;;;;;;;;;;4934567;29;20491;-60
2022/09/16 06:29:10;;;;;;;2.55;1.40;;;;;;;;;;4935131;29;20032;-64
2022/09/16 06:31:37;;;;;;;1.67;1.58;;;;;;;;;;4934601;29;20031;-61
2022/09/16 06:34:04;;;;;;;1.60;1.50;;;;;;;;;;4934531;29;20102;-61
2022/09/16 06:36:35;;;;;;;4.43;1.90;;;;;;;;;;4934618;29;20028;-61
2022/09/16 06:39:02;;;;;;;2.28;1.60;;;;;;;;;;4933871;29;20225;-60
2022/09/16 06:41:27;;;;;;;2.25;1.80;;;;;;;;;;4933315;29;20498;-60
2022/09/16 06:43:53;;;;;;;3.17;1.50;;;;;;;;;;4934468;29;20028;-61
2022/09/16 06:46:24;;;;;;;3.10;1.60;;;;;;;;;;4934596;29;20106;-61
2022/09/16 06:48:52;;;;;;;2.42;1.88;;;;;;;;;;4933313;29;20279;-60
2022/09/16 06:51:19;;;;;;;2.33;1.60;;;;;;;;;;4933251;29;20030;-60
2022/09/16 06:53:45;;;;;;;2.20;1.70;;;;;;;;;;4934439;29;20039;-61
2022/09/16 06:56:16;;;;;;;1.80;1.65;;;;;;;;;;4934719;29;20028;-61
2022/09/16 06:58:44;;;;;;;1.70;1.60;;;;;;;;;;4933845;29;20049;-63
2022/09/16 07:01:27;;;;;;;1.70;1.60;;;;;;;;;;4933306;29;20034;-60
2022/09/16 07:03:56;;;;;;;1.85;1.70;;;;;;;;;;4933802;29;20035;-61
2022/09/16 07:06:23;;;;;;;1.60;1.50;;;;;;;;;;4934531;29;20361;-61
2022/09/16 07:08:49;;;;;;;1.60;1.50;;;;;;;;;;4932840;29;20032;-61
2022/09/16 07:11:26;;;;;;;2.00;1.60;;;;;;;;;;4933062;29;20031;-70
2022/09/16 07:13:53;;;;;;;1.90;1.80;;;;;;;;;;4931772;29;20103;-68
2022/09/16 07:16:23;;;;;;;2.65;1.60;;;;;;;;;;4934432;29;20028;-68
2022/09/16 07:18:56;;;;;;;1.80;1.70;;;;;;;;;;4934084;29;20032;-61
2022/09/16 07:21:27;;;;;;;1.67;1.58;;;;;;;;;;4935519;29;20039;-60
2022/09/16 07:23:54;;;;;;;2.05;1.70;;;;;;;;;;4935192;29;20139;-69
2022/09/16 07:26:25;;;;;;;3.35;1.85;;;;;;;;;;4935137;29;20035;-65
2022/09/16 07:28:51;;;;;;;2.08;1.70;;;;;;;;;;4934987;29;20024;-67
2022/09/16 07:31:19;;;;;;;3.03;1.80;;;;;;;;;;4935333;29;20028;-61
2022/09/16 07:33:47;;;;;;;2.00;1.77;;;;;;;;;;4934801;29;20054;-69
2022/09/16 07:36:15;;;;;;;2.13;1.80;;;;;;;;;;4935098;29;20036;-63
2022/09/16 07:38:40;;;;;;;1.73;1.60;;;;;;;;;;4935240;29;20026;-61
2022/09/16 07:41:11;;;;;;;2.53;1.80;;;;;;;;;;4934875;29;20450;-62
2022/09/16 07:43:39;;;;;;;2.67;1.90;;;;;;;;;;4935033;29;20484;-69
2022/09/16 07:46:05;;;;;;;2.55;1.50;;;;;;;;;;4934869;29;20035;-62
2022/09/16 07:48:31;;;;;;;1.80;1.70;;;;;;;;;;4934826;29;20535;-64
2022/09/16 07:50:58;;;;;;;2.15;1.95;;;;;;;;;;4934855;29;20115;-62
2022/09/16 07:53:28;;;;;;;2.40;1.80;;;;;;;;;;4933315;29;20040;-70
2022/09/16 07:56:22;;;;;;;5.38;1.85;;;;;;;;;;4935360;29;20047;-62
2022/09/16 07:58:48;;;;;;;1.92;1.83;;;;;;;;;;4933156;29;20035;-67
2022/09/16 08:01:15;;;;;;;1.90;1.80;;;;;;;;;;4933623;29;20035;-70
2022/09/16 08:03:42;;;;;;;2.88;1.90;;;;;;;;;;4935094;29;20380;-61
2022/09/16 08:06:11;;;;;;;1.70;1.60;;;;;;;;;;4934907;29;20444;-65
2022/09/16 08:08:37;;;;;;;2.00;1.80;;;;;;;;;;4934659;29;20039;-64
2022/09/16 08:11:03;;;;;;;2.50;1.90;;;;;;;;;;4934859;29;20074;-61
2022/09/16 08:13:31;;;;;;;2.72;1.88;;;;;;;;;;4934724;29;20369;-62
2022/09/16 08:16:02;;;;;;;1.90;1.75;;;;;;;;;;4934890;29;20439;-69
2022/09/16 08:18:29;;;;;;;2.47;2.05;;;;;;;;;;4934823;29;20032;-62
2022/09/16 08:20:54;;;;;;;2.65;1.80;;;;;;;;;;4935459;29;20031;-61
2022/09/16 08:23:20;;;;;;;4.13;1.83;;;;;;;;;;4937097;29;20038;-66
2022/09/16 08:25:46;;;;;;;2.30;1.92;;;;;;;;;;4938210;29;20559;-67
2022/09/16 08:28:16;;;;;;;1.83;1.73;;;;;;;;;;4938086;29;20387;-69
2022/09/16 08:30:42;;;;;;;2.13;1.92;;;;;;;;;;4938117;29;20039;-61
2022/09/16 08:33:08;;;;;;;2.22;2.03;;;;;;;;;;4936770;29;20043;-61
2022/09/16 08:35:33;;;;;;;2.78;2.13;;;;;;;;;;4938319;29;20099;-63
2022/09/16 08:37:59;;;;;;;2.20;2.00;;;;;;;;;;4936921;29;20119;-62
2022/09/16 08:40:27;;;;;;;2.40;2.08;;;;;;;;;;4936643;29;20039;-61
2022/09/16 08:43:16;;;;;;;2.25;2.05;;;;;;;;;;4936504;29;20046;-60
2022/09/16 08:45:55;;;;;;;2.10;2.00;;;;;;;;;;4936133;29;20491;-61
2022/09/16 08:48:57;;;;;;;2.45;2.20;;;;;;;;;;4936240;29;20047;-60
2022/09/16 08:51:23;;;;;;;2.40;2.20;;;;;;;;;;4936151;29;20090;-65
2022/09/16 08:54:02;;;;;;;2.40;2.20;;;;;;;;;;4936065;29;20031;-62
2022/09/16 08:56:33;;;;;;;2.63;2.33;;;;;;;;;;4935570;29;20115;-68
2022/09/16 08:59:00;;;;;;;2.70;2.13;;;;;;;;;;4935923;29;20043;-64
2022/09/16 09:01:40;;;;;;;2.40;2.20;;;;;;;;;;4936162;29;20027;-60
2022/09/16 09:04:06;;;;;;;2.38;2.17;;;;;;;;;;4935947;29;20066;-63
2022/09/16 09:07:09;;;;;;;2.40;2.20;;;;;;;;;;4936054;29;20055;-64
2022/09/16 09:09:52;;;;;;;2.40;2.20;;;;;;;;;;4935936;29;20032;-63
2022/09/16 09:12:18;;;;;;;2.50;2.28;;;;;;;;;;4935758;29;20059;-64
2022/09/16 09:14:59;;;;;;;3.33;2.28;;;;;;;;;;4935582;29;20073;-60
2022/09/16 09:17:46;;;;;;;2.95;2.65;;;;;;;;;;4935987;29;20043;-64
2022/09/16 09:20:32;;;;;;;2.85;2.25;;;;;;;;;;4935831;29;20032;-67
2022/09/16 09:23:16;;;;;;;3.10;2.30;;;;;;;;;;4934003;29;20123;-66
2022/09/16 09:25:55;;;;;;;2.58;2.38;;;;;;;;;;4934672;29;20046;-61
2022/09/16 09:28:36;;;;;;;2.28;2.08;;;;;;;;;;4935648;29;20036;-59
2022/09/16 09:31:56;;;;;;;2.30;2.10;;;;;;;;;;4935574;29;20051;-60
2022/09/16 09:34:32;;;;;;;2.80;2.50;;;;;;;;;;4912955;29;20540;-63
2022/09/16 09:37:16;;;;;;;2.53;2.33;;;;;;;;;;4932771;29;20051;-62
2022/09/16 09:40:00;;;;;;;2.58;2.38;;;;;;;;;;4935625;29;20075;-61
2022/09/16 09:42:34;;;;;;;4.07;2.40;;;;;;;;;;4935451;29;20096;-59
2022/09/16 09:45:23;;;;;;;2.50;2.30;;;;;;;;;;4934284;29;20034;-60
2022/09/16 09:48:00;;;;;;;2.45;2.25;;;;;;;;;;4935148;29;20496;-61
2022/09/16 09:50:57;;;;;;;2.63;2.42;;;;;;;;;;4935452;29;20035;-64
2022/09/16 09:53:37;;;;;;;2.47;2.28;;;;;;;;;;4928797;29;20115;-61
2022/09/16 09:56:32;;;;;;;2.60;2.30;;;;;;;;;;4935410;29;20020;-59
2022/09/16 09:59:12;;;;;;;2.40;2.20;;;;;;;;;;4935008;29;20042;-61
2022/09/16 10:01:38;;;;;;;2.65;2.40;;;;;;;;;;4935027;29;20032;-61
2022/09/16 10:04:13;;;;;;;3.17;2.30;;;;;;;;;;4934964;29;20042;-61
2022/09/16 10:06:39;;;;;;;2.45;2.25;;;;;;;;;;4935107;29;20031;-60
2022/09/16 10:09:15;;;;;;;2.80;2.60;;;;;;;;;;4934765;29;20472;-61
2022/09/16 10:11:48;;;;;;;3.33;2.53;;;;;;;;;;4917837;29;20487;-62
2022/09/16 10:14:35;;;;;;;2.70;2.50;;;;;;;;;;4917495;29;20034;-61
2022/09/16 10:17:03;;;;;;;3.45;2.55;;;;;;;;;;4934608;29;20035;-61
2022/09/16 10:19:33;;;;;;;4.00;2.50;;;;;;;;;;4934453;29;20035;-61
2022/09/16 10:22:09;;;;;;;3.10;2.67;;;;;;;;;;4934564;29;20042;-61
2022/09/16 10:24:42;;;;;;;3.05;2.38;;;;;;;;;;4934562;29;20038;-61
2022/09/16 10:27:35;;;;;;;2.60;2.40;;;;;;;;;;4934451;29;20090;-61
2022/09/16 10:30:04;;;;;;;3.67;2.50;;;;;;;;;;4934320;29;20043;-60
2022/09/16 10:32:31;;;;;;;2.60;2.40;;;;;;;;;;4934497;29;20027;-61
2022/09/16 10:34:57;;;;;;;2.50;2.30;;;;;;;;;;4934208;29;20123;-60
2022/09/16 10:37:26;;;;;;;2.63;2.42;;;;;;;;;;4933873;29;20183;-61
2022/09/16 10:39:54;;;;;;;3.05;2.78;;;;;;;;;;4934346;29;20031;-62
2022/09/16 10:42:27;;;;;;;2.80;2.60;;;;;;;;;;4934068;29;20042;-60
2022/09/16 10:45:08;;;;;;;2.38;2.17;;;;;;;;;;4934076;29;20038;-60
2022/09/16 10:47:35;;;;;;;3.35;2.58;;;;;;;;;;4934007;29;20040;-61
2022/09/16 10:50:04;;;;;;;2.25;2.10;;;;;;;;;;4933925;29;20373;-60
2022/09/16 10:52:50;;;;;;;2.53;2.33;;;;;;;;;;4917151;29;20040;-60
2022/09/16 10:55:25;;;;;;;2.97;2.58;;;;;;;;;;4933798;29;20031;-61
2022/09/16 10:57:54;;;;;;;2.55;2.35;;;;;;;;;;4934195;29;20087;-60
2022/09/16 11:00:27;;;;;;;3.08;2.78;;;;;;;;;;4934190;29;20038;-61
2022/09/16 11:03:25;;;;;;;3.25;2.50;;;;;;;;;;4916885;29;20028;-61
2022/09/16 11:06:14;;;;;;;2.67;2.40;;;;;;;;;;4934137;29;20042;-61
2022/09/16 11:08:54;;;;;;;2.60;2.40;;;;;;;;;;4933948;29;20031;-60
2022/09/16 11:11:30;;;;;;;2.55;2.08;;;;;;;;;;4933861;29;20046;-60
2022/09/16 11:14:16;;;;;;;2.38;2.17;;;;;;;;;;4933669;29;20034;-63
2022/09/16 11:17:22;;;;;;;2.70;2.50;;;;;;;;;;4932311;29;20629;-62
2022/09/16 11:20:00;;;;;;;2.40;2.20;;;;;;;;;;4933663;29;20038;-61
2022/09/16 11:22:56;;;;;;;2.70;2.50;;;;;;;;;;4933933;29;20488;-61
2022/09/16 11:25:31;;;;;;;2.67;2.47;;;;;;;;;;4933760;29;20043;-61
2022/09/16 11:28:35;;;;;;;3.13;2.83;;;;;;;;;;4933856;29;20039;-62
2022/09/16 11:31:14;;;;;;;2.97;2.67;;;;;;;;;;4934022;29;20047;-61
2022/09/16 11:33:43;;;;;;;;;;;;;;;;;;4931785;29;20031;-62
2022/09/16 11:36:39;;;;;;;2.83;2.45;;;;;;;;;;4933319;29;20291;-62
2022/09/16 11:39:18;;;;;;;2.63;2.42;;;;;;;;;;4932439;29;20487;-61
2022/09/16 11:42:00;;;;;;;3.03;2.70;;;;;;;;;;4917535;29;20191;-60
2022/09/16 11:44:57;;;;;;;4.38;2.50;;;;;;;;;;4933566;29;20036;-61
2022/09/16 11:48:11;;;;;;;2.70;2.50;;;;;;;;;;4933485;29;20039;-61
2022/09/16 11:50:51;;;;;;;2.90;2.70;;;;;;;;;;4933529;29;20075;-61
2022/09/16 11:53:35;;;;;;;2.90;2.38;;;;;;;;;;4933733;29;20114;-61
2022/09/16 11:56:07;;;;;;;2.72;2.53;;;;;;;;;;4934387;29;20032;-61
2022/09/16 11:58:49;;;;;;;2.75;2.55;;;;;;;;;;4937529;29;20056;-61
2022/09/16 12:01:21;;;;;;;3.13;2.55;;;;;;;;;;4935928;29;20459;-61
2022/09/16 12:03:57;;;;;;;2.85;2.50;;;;;;;;;;4936414;29;20091;-62
2022/09/16 12:06:27;;;;;;;2.67;2.47;;;;;;;;;;4937122;29;20034;-63
2022/09/16 12:09:13;;;;;;;2.60;2.40;;;;;;;;;;4919615;29;20032;-61
2022/09/16 12:11:46;;;;;;;2.72;2.50;;;;;;;;;;4937175;29;20039;-61
2022/09/16 12:14:17;;;;;;;2.70;2.50;;;;;;;;;;4937160;29;20349;-61
2022/09/16 12:16:59;;;;;;;2.70;2.50;;;;;;;;;;4937028;29;20146;-61
2022/09/16 12:19:39;;;;;;;4.82;2.50;;;;;;;;;;4934188;29;20608;-61
2022/09/16 12:22:07;;;;;;;;;;;;;;;;;;4917295;29;20040;-61
2022/09/16 12:24:41;;;;;;;5.28;2.30;;;;;;;;;;4936579;29;20020;-62
2022/09/16 12:27:28;;;;;;;3.15;2.20;;;;;;;;;;4936990;29;20039;-62
2022/09/16 12:30:00;;;;;;;3.00;2.28;;;;;;;;;;4936392;29;20036;-62
2022/09/16 12:32:44;;;;;;;2.80;2.30;;;;;;;;;;4936851;29;20065;-62
2022/09/16 12:35:17;;;;;;;3.10;2.38;;;;;;;;;;4936598;29;20050;-60
2022/09/16 12:37:51;;;;;;;3.63;2.22;;;;;;;;;;4936354;29;20047;-61
2022/09/16 12:40:46;;;;;;;3.35;2.20;;;;;;;;;;4936204;29;20024;-61
2022/09/16 12:43:20;;;;;;;3.72;2.45;;;;;;;;;;4935434;29;20051;-62
2022/09/16 12:45:52;;;;;;;2.60;2.40;;;;;;;;;;4936312;29;20031;-61
2022/09/16 12:48:27;;;;;;;4.18;2.35;;;;;;;;;;4936172;29;20112;-62
2022/09/16 12:51:17;;;;;;;2.55;2.33;;;;;;;;;;4936135;29;20082;-62
2022/09/16 12:54:01;;;;;;;7.82;2.45;;;;;;;;;;4936302;29;20091;-60
2022/09/16 12:57:05;;;;;;;3.40;2.33;;;;;;;;;;4935994;29;20039;-61
2022/09/16 12:59:49;;;;;;;6.72;2.30;;;;;;;;;;4936070;29;20042;-61
2022/09/16 13:02:17;;;;;;;4.15;2.50;;;;;;;;;;4936214;29;20086;-61
2022/09/16 13:04:53;;;;;;;3.33;2.75;;;;;;;;;;4936181;29;20040;-62
2022/09/16 13:07:23;;;;;;;3.20;2.38;;;;;;;;;;4935737;29;20076;-61
2022/09/16 13:10:14;;;;;;;4.00;2.63;;;;;;;;;;4935973;29;20043;-61
2022/09/16 13:12:40;;;;;;;3.90;3.10;;;;;;;;;;4935998;29;20043;-61
2022/09/16 13:15:06;;;;;;;2.80;2.60;;;;;;;;;;4935690;29;20107;-60
2022/09/16 13:17:39;;;;;;;2.92;2.53;;;;;;;;;;4935930;29;20487;-61
2022/09/16 13:20:19;;;;;;;4.28;2.55;;;;;;;;;;4918586;29;20035;-60
2022/09/16 13:22:51;;;;;;;4.85;2.15;;;;;;;;;;4935850;29;20064;-60
2022/09/16 13:25:25;;;;;;;3.33;2.20;;;;;;;;;;4935504;29;20032;-60
2022/09/16 13:28:33;;;;;;;3.90;2.53;;;;;;;;;;4935580;29;20026;-60
2022/09/16 13:31:11;;;;;;;2.92;2.70;;;;;;;;;;4935325;29;20040;-61
2022/09/16 13:33:59;;;;;;;3.10;2.60;;;;;;;;;;4935336;29;20039;-60
2022/09/16 13:36:25;;;;;;;3.40;2.13;;;;;;;;;;4932390;29;20047;-59
2022/09/16 13:38:53;;;;;;;3.25;2.28;;;;;;;;;;4931769;29;20476;-59
2022/09/16 13:41:34;;;;;;;2.90;2.10;;;;;;;;;;4935462;29;20076;-60
2022/09/16 13:44:00;;;;;;;4.15;2.42;;;;;;;;;;4935057;29;20039;-61
2022/09/16 13:46:36;;;;;;;5.95;3.10;;;;;;;;;;4935221;29;20023;-60
2022/09/16 13:49:01;;;;;;;5.90;2.80;;;;;;;;;;4935022;29;20032;-61
2022/09/16 13:51:27;;;;;;;6.80;2.85;;;;;;;;;;4935092;29;20035;-62
2022/09/16 13:53:57;;;;;;;5.85;3.35;;;;;;;;;;4935637;29;20035;-63
2022/09/16 13:56:26;;;;;;;4.50;2.70;;;;;;;;;;4935367;29;20440;-63
2022/09/16 13:59:07;;;;;;;2.63;1.95;;;;;;;;;;4933618;29;20032;-63
2022/09/16 14:02:08;;;;;;;2.80;1.80;;;;;;;;;;4934978;29;20039;-64
2022/09/16 14:04:48;;;;;;;3.70;1.70;;;;;;;;;;4933678;29;20082;-62
2022/09/16 14:07:42;;;;;;;1.58;1.48;;;;;;;;;;4934974;29;20031;-63
2022/09/16 14:10:34;;;;;;;1.92;1.45;;;;;;;;;;4934817;29;20035;-64
2022/09/16 14:13:10;;;;;;;15.52;1.42;;;;;;;;;;4935130;29;20049;-63
2022/09/16 14:15:44;;;;;;;2.72;1.60;;;;;;;;;;4934763;29;20032;-63
2022/09/16 14:18:16;;;;;;;1.70;1.58;;;;;;;;;;4934358;29;20118;-63
2022/09/16 14:20:54;;;;;;;4.28;1.88;;;;;;;;;;4934383;29;20043;-63
2022/09/16 14:23:23;;;;;;;2.50;1.63;;;;;;;;;;4932843;29;20055;-64
2022/09/16 14:25:49;;;;;;;2.10;1.42;;;;;;;;;;4932848;29;20066;-63
2022/09/16 14:28:25;;;;;;;3.95;1.83;;;;;;;;;;4932624;29;20059;-63
2022/09/16 14:30:54;;;;;;;4.40;1.58;;;;;;;;;;4934360;29;20047;-63
2022/09/16 14:33:34;;;;;;;4.27;1.70;;;;;;;;;;4933667;29;20036;-63
2022/09/16 14:36:06;;;;;;;;;;;;;;;;;;4933738;29;20293;-63
2022/09/16 14:38:41;;;;;;;3.17;1.60;;;;;;;;;;4934277;29;19961;-63
2022/09/16 14:41:18;;;;;;;2.60;1.70;;;;;;;;;;4934073;29;20063;-64
2022/09/16 14:43:43;;;;;;;2.58;1.60;;;;;;;;;;4930434;29;20032;-63
2022/09/16 14:46:09;;;;;;;2.40;1.30;;;;;;;;;;4929814;29;20081;-64
2022/09/16 14:48:39;;;;;;;5.07;2.00;;;;;;;;;;4928715;29;20043;-62
2022/09/16 14:51:20;;;;;;;3.75;1.67;;;;;;;;;;4932333;29;20046;-64
2022/09/16 14:53:56;;;;;;;4.15;1.48;;;;;;;;;;4931815;29;20059;-64
2022/09/16 14:56:22;;;;;;;1.40;1.30;;;;;;;;;;4934031;29;20039;-64
2022/09/16 14:58:49;;;;;;;2.53;1.40;;;;;;;;;;4934254;29;20546;-64
2022/09/16 15:01:24;;;;;;;2.65;1.73;;;;;;;;;;4933788;29;20508;-63
2022/09/16 15:04:09;;;;;;;3.53;1.83;;;;;;;;;;4934166;29;20038;-64
2022/09/16 15:06:44;;;;;;;2.25;1.60;;;;;;;;;;4934113;29;20082;-63
2022/09/16 15:09:37;;;;;;;2.42;1.60;;;;;;;;;;4933664;29;20123;-64
2022/09/16 15:12:03;;;;;;;2.72;1.80;;;;;;;;;;4933650;29;20043;-66
2022/09/16 15:14:29;;;;;;;2.78;1.67;;;;;;;;;;4933844;29;20035;-65
2022/09/16 15:17:02;;;;;;;2.30;1.40;;;;;;;;;;4933572;29;20046;-65
2022/09/16 15:19:35;;;;;;;3.65;1.77;;;;;;;;;;4933706;29;20028;-65
2022/09/16 15:22:01;;;;;;;2.95;1.65;;;;;;;;;;4933694;29;20456;-65